sensor_id;sensor_type;location;lat;lon;timestamp;pressure;altitude;pressure_sealevel;temperature;humidity
43217;BME280;71549;42.686;23.300;2023-09-19T00:01:55;95053.25;;;25.94;32.91
43217;BME280;71549;42.686;23.300;2023-09-19T00:03:57;95069.63;;;26.01;33.20
43217;BME280;71549;42.686;23.300;2023-09-19T00:05:59;95086.19;;;26.15;33.21
43217;BME280;71549;42.686;23.300;2023-09-19T00:08:00;95091.56;;;26.12;33.20
43217;BME280;71549;42.686;23.300;2023-09-19T00:10:00;95050.16;;;25.76;33.13
43217;BME280;71549;42.686;23.300;2023-09-19T00:12:01;95097.25;;;26.06;33.58
43217;BME280;71549;42.686;23.300;2023-09-19T00:14:02;95094.19;;;26.08;33.28
43217;BME280;71549;42.686;23.300;2023-09-19T00:16:11;95067.00;;;25.85;33.57
43217;BME280;71549;42.686;23.300;2023-09-19T00:18:14;95061.16;;;25.83;33.68
43217;BME280;71549;42.686;23.300;2023-09-19T00:20:15;95096.47;;;26.06;33.43
43217;BME280;71549;42.686;23.300;2023-09-19T00:22:17;95062.69;;;25.84;33.69
43217;BME280;71549;42.686;23.300;2023-09-19T00:24:19;95070.91;;;25.88;33.59
43217;BME280;71549;42.686;23.300;2023-09-19T00:26:19;95056.94;;;25.85;33.52
43217;BME280;71549;42.686;23.300;2023-09-19T00:28:22;95088.63;;;26.01;33.54
43217;BME280;71549;42.686;23.300;2023-09-19T00:30:22;95088.63;;;26.01;33.58
43217;BME280;71549;42.686;23.300;2023-09-19T00:32:24;95052.44;;;25.74;33.58
43217;BME280;71549;42.686;23.300;2023-09-19T00:34:26;95083.56;;;25.99;33.67
43217;BME280;71549;42.686;23.300;2023-09-19T00:36:26;95056.06;;;25.81;33.50
43217;BME280;71549;42.686;23.300;2023-09-19T00:38:27;94911.75;;;24.91;33.87
43217;BME280;71549;42.686;23.300;2023-09-19T00:40:27;95068.78;;;25.97;33.67
43217;BME280;71549;42.686;23.300;2023-09-19T00:42:28;95076.50;;;25.95;33.76
43217;BME280;71549;42.686;23.300;2023-09-19T00:44:28;95070.50;;;25.85;33.64
43217;BME280;71549;42.686;23.300;2023-09-19T00:46:31;95066.19;;;25.84;33.85
43217;BME280;71549;42.686;23.300;2023-09-19T00:48:38;95029.75;;;25.62;33.62
43217;BME280;71549;42.686;23.300;2023-09-19T00:50:42;95079.59;;;25.93;33.89
43217;BME280;71549;42.686;23.300;2023-09-19T00:52:44;95076.06;;;25.93;33.92
43217;BME280;71549;42.686;23.300;2023-09-19T00:54:46;95073.72;;;25.91;33.84
43217;BME280;71549;42.686;23.300;2023-09-19T00:56:47;95036.75;;;25.63;33.83
43217;BME280;71549;42.686;23.300;2023-09-19T00:58:49;95078.44;;;25.94;33.93
43217;BME280;71549;42.686;23.300;2023-09-19T01:00:49;95070.84;;;25.84;34.06
43217;BME280;71549;42.686;23.300;2023-09-19T01:02:50;95067.78;;;25.85;33.85
43217;BME280;71549;42.686;23.300;2023-09-19T01:04:51;95079.06;;;25.88;34.10
43217;BME280;71549;42.686;23.300;2023-09-19T01:06:53;95003.06;;;25.45;33.90
43217;BME280;71549;42.686;23.300;2023-09-19T01:08:54;95057.16;;;25.77;33.94
43217;BME280;71549;42.686;23.300;2023-09-19T01:11:00;95078.00;;;25.92;33.95
43217;BME280;71549;42.686;23.300;2023-09-19T01:13:21;95076.78;;;25.90;34.03
43217;BME280;71549;42.686;23.300;2023-09-19T01:15:45;95070.56;;;25.89;34.10
43217;BME280;71549;42.686;23.300;2023-09-19T01:23:10;95085.00;;;25.93;33.98
43217;BME280;71549;42.686;23.300;2023-09-19T01:30:06;95085.72;;;25.90;34.09
43217;BME280;71549;42.686;23.300;2023-09-19T01:32:08;95045.31;;;25.65;34.10
43217;BME280;71549;42.686;23.300;2023-09-19T01:34:09;95059.78;;;25.73;34.05
43217;BME280;71549;42.686;23.300;2023-09-19T01:36:10;95071.78;;;25.92;34.19
43217;BME280;71549;42.686;23.300;2023-09-19T01:38:10;95054.00;;;25.75;34.19
43217;BME280;71549;42.686;23.300;2023-09-19T01:40:17;95076.88;;;25.93;34.12
43217;BME280;71549;42.686;23.300;2023-09-19T01:42:57;95084.19;;;25.93;34.10
43217;BME280;71549;42.686;23.300;2023-09-19T01:47:15;95029.69;;;25.59;34.04
43217;BME280;71549;42.686;23.300;2023-09-19T01:49:37;95081.06;;;25.91;34.18
43217;BME280;71549;42.686;23.300;2023-09-19T01:51:51;95073.72;;;25.91;34.15
43217;BME280;71549;42.686;23.300;2023-09-19T01:54:03;95054.88;;;25.79;34.18
43217;BME280;71549;42.686;23.300;2023-09-19T01:56:11;95048.88;;;25.70;34.42
43217;BME280;71549;42.686;23.300;2023-09-19T01:58:21;95074.88;;;25.90;34.20
43217;BME280;71549;42.686;23.300;2023-09-19T02:00:23;95050.56;;;25.78;33.94
43217;BME280;71549;42.686;23.300;2023-09-19T02:02:26;95087.50;;;26.02;34.01
43217;BME280;71549;42.686;23.300;2023-09-19T02:04:29;95065.66;;;25.95;34.11
43217;BME280;71549;42.686;23.300;2023-09-19T02:06:31;95069.88;;;25.92;33.76
43217;BME280;71549;42.686;23.300;2023-09-19T02:08:32;95050.56;;;25.78;34.21
43217;BME280;71549;42.686;23.300;2023-09-19T02:10:34;95073.72;;;25.91;34.21
43217;BME280;71549;42.686;23.300;2023-09-19T02:12:34;95078.84;;;25.96;34.24
43217;BME280;71549;42.686;23.300;2023-09-19T02:14:36;95087.41;;;25.98;34.33
43217;BME280;71549;42.686;23.300;2023-09-19T02:16:38;95082.72;;;25.95;34.21
43217;BME280;71549;42.686;23.300;2023-09-19T02:18:39;95074.41;;;25.88;34.33
43217;BME280;71549;42.686;23.300;2023-09-19T02:20:39;95084.63;;;25.95;34.36
43217;BME280;71549;42.686;23.300;2023-09-19T02:22:41;95045.81;;;25.71;34.40
43217;BME280;71549;42.686;23.300;2023-09-19T02:24:42;95082.28;;;25.93;34.47
43217;BME280;71549;42.686;23.300;2023-09-19T02:26:42;95062.78;;;25.88;34.32
43217;BME280;71549;42.686;23.300;2023-09-19T02:28:45;95037.75;;;25.75;34.37
43217;BME280;71549;42.686;23.300;2023-09-19T02:30:49;95062.88;;;25.91;34.30
43217;BME280;71549;42.686;23.300;2023-09-19T02:32:50;95068.97;;;25.88;34.53
43217;BME280;71549;42.686;23.300;2023-09-19T02:34:52;95060.28;;;25.79;34.38
43217;BME280;71549;42.686;23.300;2023-09-19T02:36:52;95067.44;;;25.87;34.32
43217;BME280;71549;42.686;23.300;2023-09-19T02:38:55;95054.50;;;25.80;34.34
43217;BME280;71549;42.686;23.300;2023-09-19T02:40:57;95043.22;;;25.78;34.44
43217;BME280;71549;42.686;23.300;2023-09-19T02:42:58;95028.34;;;25.69;34.48
43217;BME280;71549;42.686;23.300;2023-09-19T02:44:59;95042.94;;;25.83;34.47
43217;BME280;71549;42.686;23.300;2023-09-19T02:47:00;95019.81;;;25.70;34.34
43217;BME280;71549;42.686;23.300;2023-09-19T02:49:03;95048.03;;;25.85;34.25
43217;BME280;71549;42.686;23.300;2023-09-19T02:51:07;95055.00;;;25.86;34.41
43217;BME280;71549;42.686;23.300;2023-09-19T02:53:07;95030.47;;;25.79;34.34
43217;BME280;71549;42.686;23.300;2023-09-19T02:55:10;95050.00;;;25.88;34.36
43217;BME280;71549;42.686;23.300;2023-09-19T02:57:11;95052.72;;;25.88;34.11
43217;BME280;71549;42.686;23.300;2023-09-19T02:59:15;95049.75;;;25.93;34.05
43217;BME280;71549;42.686;23.300;2023-09-19T03:01:17;95023.88;;;25.80;33.93
43217;BME280;71549;42.686;23.300;2023-09-19T03:03:18;95049.03;;;25.96;33.89
43217;BME280;71549;42.686;23.300;2023-09-19T03:05:19;95043.53;;;25.93;34.08
43217;BME280;71549;42.686;23.300;2023-09-19T03:07:21;95014.56;;;25.77;34.24
43217;BME280;71549;42.686;23.300;2023-09-19T03:09:21;95019.31;;;25.84;34.29
43217;BME280;71549;42.686;23.300;2023-09-19T03:11:22;95037.31;;;25.92;34.27
43217;BME280;71549;42.686;23.300;2023-09-19T03:13:23;95024.31;;;25.82;34.09
43217;BME280;71549;42.686;23.300;2023-09-19T03:15:23;95001.22;;;25.69;34.33
43217;BME280;71549;42.686;23.300;2023-09-19T03:17:24;95008.28;;;25.73;34.38
43217;BME280;71549;42.686;23.300;2023-09-19T03:19:25;95002.34;;;25.67;34.32
43217;BME280;71549;42.686;23.300;2023-09-19T03:21:26;95036.53;;;25.92;34.21
43217;BME280;71549;42.686;23.300;2023-09-19T03:23:29;95035.03;;;25.94;34.33
43217;BME280;71549;42.686;23.300;2023-09-19T03:25:30;94989.53;;;25.64;34.17
43217;BME280;71549;42.686;23.300;2023-09-19T03:27:30;95036.19;;;25.93;34.04
43217;BME280;71549;42.686;23.300;2023-09-19T03:29:31;95030.81;;;25.97;33.87
43217;BME280;71549;42.686;23.300;2023-09-19T03:31:31;95031.63;;;25.97;33.94
43217;BME280;71549;42.686;23.300;2023-09-19T03:33:32;95034.25;;;25.94;34.10
43217;BME280;71549;42.686;23.300;2023-09-19T03:35:34;95029.47;;;25.87;34.00
43217;BME280;71549;42.686;23.300;2023-09-19T03:37:35;95042.03;;;25.95;34.06
43217;BME280;71549;42.686;23.300;2023-09-19T03:39:35;95037.03;;;25.97;33.79
43217;BME280;71549;42.686;23.300;2023-09-19T03:41:36;95029.88;;;25.89;34.11
43217;BME280;71549;42.686;23.300;2023-09-19T03:43:36;95039.31;;;25.95;33.81
43217;BME280;71549;42.686;23.300;2023-09-19T03:45:37;95054.22;;;26.05;34.06
43217;BME280;71549;42.686;23.300;2023-09-19T03:47:39;95020.06;;;25.81;33.76
43217;BME280;71549;42.686;23.300;2023-09-19T03:49:39;95051.94;;;26.07;33.85
43217;BME280;71549;42.686;23.300;2023-09-19T03:51:40;95048.34;;;26.03;34.00
43217;BME280;71549;42.686;23.300;2023-09-19T03:53:41;95058.16;;;26.08;33.75
43217;BME280;71549;42.686;23.300;2023-09-19T03:55:44;95018.13;;;25.81;33.68
43217;BME280;71549;42.686;23.300;2023-09-19T03:57:48;95055.44;;;26.08;33.87
43217;BME280;71549;42.686;23.300;2023-09-19T03:59:49;95057.78;;;26.09;33.74
43217;BME280;71549;42.686;23.300;2023-09-19T04:01:50;95042.91;;;25.99;33.65
43217;BME280;71549;42.686;23.300;2023-09-19T04:03:50;95051.56;;;26.09;33.75
43217;BME280;71549;42.686;23.300;2023-09-19T04:05:53;95048.75;;;26.01;33.93
43217;BME280;71549;42.686;23.300;2023-09-19T04:07:54;95062.41;;;26.09;33.77
43217;BME280;71549;42.686;23.300;2023-09-19T04:09:54;95018.78;;;25.75;33.76
43217;BME280;71549;42.686;23.300;2023-09-19T04:11:55;95059.88;;;25.96;33.57
43217;BME280;71549;42.686;23.300;2023-09-19T04:13:56;95045.44;;;25.73;33.56
43217;BME280;71549;42.686;23.300;2023-09-19T04:15:56;95083.28;;;25.85;34.04
43217;BME280;71549;42.686;23.300;2023-09-19T04:17:57;95050.06;;;25.33;34.21
43217;BME280;71549;42.686;23.300;2023-09-19T04:19:59;95074.34;;;25.65;34.47
43217;BME280;71549;42.686;23.300;2023-09-19T04:21:59;95060.13;;;25.72;34.14
43217;BME280;71549;42.686;23.300;2023-09-19T04:23:59;95031.63;;;25.58;33.92
43217;BME280;71549;42.686;23.300;2023-09-19T04:26:00;95064.63;;;25.83;33.79
43217;BME280;71549;42.686;23.300;2023-09-19T04:28:01;95032.91;;;25.64;34.00
43217;BME280;71549;42.686;23.300;2023-09-19T04:30:01;95050.94;;;25.76;33.92
43217;BME280;71549;42.686;23.300;2023-09-19T04:32:04;94992.16;;;25.41;33.92
43217;BME280;71549;42.686;23.300;2023-09-19T04:34:04;95061.63;;;25.89;33.81
43217;BME280;71549;42.686;23.300;2023-09-19T04:36:05;95061.63;;;25.89;33.93
43217;BME280;71549;42.686;23.300;2023-09-19T04:38:08;95007.56;;;25.57;33.97
43217;BME280;71549;42.686;23.300;2023-09-19T04:40:09;95008.00;;;25.59;33.93
43217;BME280;71549;42.686;23.300;2023-09-19T04:42:17;95018.97;;;25.66;34.12
43217;BME280;71549;42.686;23.300;2023-09-19T04:44:18;95048.88;;;25.89;33.99
43217;BME280;71549;42.686;23.300;2023-09-19T04:46:18;95054.00;;;25.94;34.04
43217;BME280;71549;42.686;23.300;2023-09-19T04:48:19;95060.22;;;25.95;33.93
43217;BME280;71549;42.686;23.300;2023-09-19T04:50:20;95026.09;;;25.74;34.19
43217;BME280;71549;42.686;23.300;2023-09-19T04:52:22;95046.84;;;25.86;34.11
43217;BME280;71549;42.686;23.300;2023-09-19T04:54:22;95032.09;;;25.83;33.93
43217;BME280;71549;42.686;23.300;2023-09-19T04:56:23;95043.94;;;25.95;34.10
43217;BME280;71549;42.686;23.300;2023-09-19T04:58:24;95019.91;;;25.74;34.13
43217;BME280;71549;42.686;23.300;2023-09-19T05:00:25;95025.91;;;25.83;34.12
43217;BME280;71549;42.686;23.300;2023-09-19T05:02:29;94973.00;;;25.50;33.96
43217;BME280;71549;42.686;23.300;2023-09-19T05:04:31;95023.97;;;25.83;33.94
43217;BME280;71549;42.686;23.300;2023-09-19T05:06:32;95011.75;;;25.74;33.89
43217;BME280;71549;42.686;23.300;2023-09-19T05:08:33;95029.03;;;25.85;34.40
43217;BME280;71549;42.686;23.300;2023-09-19T05:10:35;95050.59;;;25.97;34.36
43217;BME280;71549;42.686;23.300;2023-09-19T05:12:39;95049.03;;;25.96;34.12
43217;BME280;71549;42.686;23.300;2023-09-19T05:14:40;95046.31;;;25.96;34.40
43217;BME280;71549;42.686;23.300;2023-09-19T05:16:40;95050.94;;;25.96;34.28
43217;BME280;71549;42.686;23.300;2023-09-19T05:18:41;95047.47;;;25.95;34.51
43217;BME280;71549;42.686;23.300;2023-09-19T05:20:42;94958.72;;;25.34;34.53
43217;BME280;71549;42.686;23.300;2023-09-19T05:22:43;95044.56;;;25.88;34.65
43217;BME280;71549;42.686;23.300;2023-09-19T05:24:46;95047.28;;;25.88;34.60
43217;BME280;71549;42.686;23.300;2023-09-19T05:26:50;94973.69;;;25.47;34.64
43217;BME280;71549;42.686;23.300;2023-09-19T05:28:51;95004.41;;;25.74;34.35
43217;BME280;71549;42.686;23.300;2023-09-19T05:30:53;94995.84;;;25.72;34.34
43217;BME280;71549;42.686;23.300;2023-09-19T05:32:53;95035.03;;;25.94;34.61
43217;BME280;71549;42.686;23.300;2023-09-19T05:34:56;95039.03;;;26.00;34.60
43217;BME280;71549;42.686;23.300;2023-09-19T05:36:56;95043.31;;;26.01;34.41
43217;BME280;71549;42.686;23.300;2023-09-19T05:38:57;94999.06;;;25.78;34.71
43217;BME280;71549;42.686;23.300;2023-09-19T05:40:57;95024.34;;;26.01;34.47
43217;BME280;71549;42.686;23.300;2023-09-19T05:42:57;95034.16;;;26.10;34.37
43217;BME280;71549;42.686;23.300;2023-09-19T05:44:58;95027.59;;;26.11;34.57
43217;BME280;71549;42.686;23.300;2023-09-19T05:46:59;95031.44;;;26.10;34.47
43217;BME280;71549;42.686;23.300;2023-09-19T05:48:59;94995.44;;;25.90;34.18
43217;BME280;71549;42.686;23.300;2023-09-19T05:51:00;95029.94;;;26.12;34.53
43217;BME280;71549;42.686;23.300;2023-09-19T05:53:01;94975.84;;;25.80;34.44
43217;BME280;71549;42.686;23.300;2023-09-19T05:55:01;94915.44;;;25.37;34.36
43217;BME280;71549;42.686;23.300;2023-09-19T05:57:04;95004.59;;;26.04;34.31
43217;BME280;71549;42.686;23.300;2023-09-19T05:59:04;95025.00;;;26.18;34.20
43217;BME280;71549;42.686;23.300;2023-09-19T06:01:05;95027.84;;;26.25;34.15
43217;BME280;71549;42.686;23.300;2023-09-19T06:03:07;95030.97;;;26.27;34.26
43217;BME280;71549;42.686;23.300;2023-09-19T06:05:08;95020.84;;;26.24;34.01
43217;BME280;71549;42.686;23.300;2023-09-19T06:07:11;95018.25;;;26.31;34.13
43217;BME280;71549;42.686;23.300;2023-09-19T06:09:12;95021.38;;;26.33;33.98
43217;BME280;71549;42.686;23.300;2023-09-19T06:11:12;94988.91;;;26.14;34.25
43217;BME280;71549;42.686;23.300;2023-09-19T06:13:13;94992.91;;;26.23;34.15
43217;BME280;71549;42.686;23.300;2023-09-19T06:15:14;95016.81;;;26.37;34.19
43217;BME280;71549;42.686;23.300;2023-09-19T06:17:19;95025.38;;;26.39;33.79
43217;BME280;71549;42.686;23.300;2023-09-19T06:19:20;95019.56;;;26.41;34.04
43217;BME280;71549;42.686;23.300;2023-09-19T06:21:23;94998.84;;;26.29;34.00
43217;BME280;71549;42.686;23.300;2023-09-19T06:23:23;94994.97;;;26.30;33.89
43217;BME280;71549;42.686;23.300;2023-09-19T06:25:26;94995.41;;;26.32;34.11
43217;BME280;71549;42.686;23.300;2023-09-19T06:27:27;94997.88;;;26.41;34.18
43217;BME280;71549;42.686;23.300;2023-09-19T06:29:29;95003.34;;;26.44;33.87
43217;BME280;71549;42.686;23.300;2023-09-19T06:31:30;94987.75;;;26.38;34.35
43217;BME280;71549;42.686;23.300;2023-09-19T06:33:33;94835.22;;;25.33;33.95
43217;BME280;71549;42.686;23.300;2023-09-19T06:35:34;94891.38;;;25.78;34.05
43217;BME280;71549;42.686;23.300;2023-09-19T06:37:34;94985.75;;;26.35;34.09
43217;BME280;71549;42.686;23.300;2023-09-19T06:39:38;94899.53;;;25.78;33.98
43217;BME280;71549;42.686;23.300;2023-09-19T06:41:44;95016.75;;;26.57;33.69
43217;BME280;71549;42.686;23.300;2023-09-19T06:43:45;95004.75;;;26.58;34.09
43217;BME280;71549;42.686;23.300;2023-09-19T06:45:46;95007.81;;;26.56;34.01
43217;BME280;71549;42.686;23.300;2023-09-19T06:47:47;95010.19;;;26.58;34.02
43217;BME280;71549;42.686;23.300;2023-09-19T06:49:51;95012.53;;;26.59;34.06
43217;BME280;71549;42.686;23.300;2023-09-19T06:51:54;95018.38;;;26.61;34.02
43217;BME280;71549;42.686;23.300;2023-09-19T06:53:55;95001.97;;;26.54;33.92
43217;BME280;71549;42.686;23.300;2023-09-19T06:55:56;95013.25;;;26.56;33.94
43217;BME280;71549;42.686;23.300;2023-09-19T06:57:57;95028.88;;;26.63;34.05
43217;BME280;71549;42.686;23.300;2023-09-19T06:59:59;94975.22;;;26.30;33.96
43217;BME280;71549;42.686;23.300;2023-09-19T07:02:01;95017.19;;;26.59;34.09
43217;BME280;71549;42.686;23.300;2023-09-19T07:04:02;94974.38;;;26.25;33.76
43217;BME280;71549;42.686;23.300;2023-09-19T07:06:02;94997.56;;;26.46;33.86
43217;BME280;71549;42.686;23.300;2023-09-19T07:08:06;94917.22;;;25.92;33.76
43217;BME280;71549;42.686;23.300;2023-09-19T07:10:07;94958.38;;;26.20;33.97
43217;BME280;71549;42.686;23.300;2023-09-19T07:12:11;94990.22;;;26.46;34.02
43217;BME280;71549;42.686;23.300;2023-09-19T07:14:12;95021.59;;;26.67;33.89
43217;BME280;71549;42.686;23.300;2023-09-19T07:16:16;95004.69;;;26.54;33.79
43217;BME280;71549;42.686;23.300;2023-09-19T07:18:27;94962.22;;;26.19;34.19
43217;BME280;71549;42.686;23.300;2023-09-19T07:20:28;94950.94;;;26.17;34.25
43217;BME280;71549;42.686;23.300;2023-09-19T07:22:31;95018.81;;;26.63;34.05
43217;BME280;71549;42.686;23.300;2023-09-19T07:24:32;95010.66;;;26.63;34.08
43217;BME280;71549;42.686;23.300;2023-09-19T07:26:32;94998.44;;;26.54;33.88
43217;BME280;71549;42.686;23.300;2023-09-19T07:28:33;95022.44;;;26.71;33.92
43217;BME280;71549;42.686;23.300;2023-09-19T07:30:38;95004.75;;;26.58;34.17
43217;BME280;71549;42.686;23.300;2023-09-19T07:32:39;95016.09;;;26.63;33.84
43217;BME280;71549;42.686;23.300;2023-09-19T07:34:42;95009.47;;;26.61;34.16
43217;BME280;71549;42.686;23.300;2023-09-19T07:36:42;94929.09;;;26.06;33.91
43217;BME280;71549;42.686;23.300;2023-09-19T07:38:44;95027.09;;;26.74;34.00
43217;BME280;71549;42.686;23.300;2023-09-19T07:40:44;95027.09;;;26.74;33.89
43217;BME280;71549;42.686;23.300;2023-09-19T07:42:45;95024.41;;;26.74;34.13
43217;BME280;71549;42.686;23.300;2023-09-19T07:44:47;95030.25;;;26.76;34.25
43217;BME280;71549;42.686;23.300;2023-09-19T07:46:49;95004.31;;;26.56;33.83
43217;BME280;71549;42.686;23.300;2023-09-19T07:48:51;94980.88;;;26.44;33.86
43217;BME280;71549;42.686;23.300;2023-09-19T07:50:52;95020.06;;;26.70;34.31
43217;BME280;71549;42.686;23.300;2023-09-19T07:52:53;95014.97;;;26.64;34.18
43217;BME280;71549;42.686;23.300;2023-09-19T07:54:53;94999.69;;;26.56;34.15
43217;BME280;71549;42.686;23.300;2023-09-19T07:56:54;94999.69;;;26.56;33.87
43217;BME280;71549;42.686;23.300;2023-09-19T07:58:55;95036.47;;;26.77;33.98
43217;BME280;71549;42.686;23.300;2023-09-19T08:01:05;95005.56;;;26.58;34.15
43217;BME280;71549;42.686;23.300;2023-09-19T08:03:06;95036.47;;;26.77;33.88
43217;BME280;71549;42.686;23.300;2023-09-19T08:05:10;95029.53;;;26.79;33.88
43217;BME280;71549;42.686;23.300;2023-09-19T08:07:12;94960.63;;;26.38;33.92
43217;BME280;71549;42.686;23.300;2023-09-19T08:09:13;95015.94;;;26.79;33.93
43217;BME280;71549;42.686;23.300;2023-09-19T08:11:20;94974.75;;;26.51;34.18
43217;BME280;71549;42.686;23.300;2023-09-19T08:13:23;94985.09;;;26.64;33.90
43217;BME280;71549;42.686;23.300;2023-09-19T08:15:24;94993.66;;;26.67;33.85
43217;BME280;71549;42.686;23.300;2023-09-19T08:17:25;95004.66;;;26.77;33.82
43217;BME280;71549;42.686;23.300;2023-09-19T08:19:26;95011.78;;;26.85;33.82
43217;BME280;71549;42.686;23.300;2023-09-19T08:21:31;95003.22;;;26.83;33.91
43217;BME280;71549;42.686;23.300;2023-09-19T08:23:32;95002.09;;;26.88;33.83
43217;BME280;71549;42.686;23.300;2023-09-19T08:25:33;94976.31;;;26.75;33.82
43217;BME280;71549;42.686;23.300;2023-09-19T08:27:34;94991.94;;;26.81;33.65
43217;BME280;71549;42.686;23.300;2023-09-19T08:29:36;94954.31;;;26.57;33.88
43217;BME280;71549;42.686;23.300;2023-09-19T08:31:36;94989.09;;;26.74;34.04
43217;BME280;71549;42.686;23.300;2023-09-19T08:33:37;95013.03;;;26.92;34.08
43217;BME280;71549;42.686;23.300;2023-09-19T08:35:38;95013.44;;;26.94;33.73
43217;BME280;71549;42.686;23.300;2023-09-19T08:37:42;94953.81;;;26.51;33.92
43217;BME280;71549;42.686;23.300;2023-09-19T08:39:42;95017.69;;;26.91;34.05
43217;BME280;71549;42.686;23.300;2023-09-19T08:41:43;95002.44;;;26.83;33.84
43217;BME280;71549;42.686;23.300;2023-09-19T08:43:44;95012.25;;;26.91;33.68
43217;BME280;71549;42.686;23.300;2023-09-19T08:45:47;94930.78;;;26.41;34.00
43217;BME280;71549;42.686;23.300;2023-09-19T08:47:59;94994.72;;;26.85;33.83
43217;BME280;71549;42.686;23.300;2023-09-19T08:50:19;94995.56;;;26.93;33.73
43217;BME280;71549;42.686;23.300;2023-09-19T08:52:25;94954.13;;;26.69;34.05
43217;BME280;71549;42.686;23.300;2023-09-19T08:54:33;94986.97;;;26.87;33.87
43217;BME280;71549;42.686;23.300;2023-09-19T08:56:35;94975.56;;;26.78;33.87
43217;BME280;71549;42.686;23.300;2023-09-19T08:58:45;94970.09;;;26.74;33.77
43217;BME280;71549;42.686;23.300;2023-09-19T09:00:49;94945.44;;;26.60;33.95
43217;BME280;71549;42.686;23.300;2023-09-19T09:02:51;94994.44;;;26.94;33.98
43217;BME280;71549;42.686;23.300;2023-09-19T09:04:53;94807.94;;;25.68;34.05
43217;BME280;71549;42.686;23.300;2023-09-19T09:06:55;94995.22;;;26.94;33.83
43217;BME280;71549;42.686;23.300;2023-09-19T09:08:57;94947.81;;;26.61;33.96
43217;BME280;71549;42.686;23.300;2023-09-19T09:10:58;94902.38;;;26.32;33.76
43217;BME280;71549;42.686;23.300;2023-09-19T09:12:59;94925.44;;;26.45;33.83
43217;BME280;71549;42.686;23.300;2023-09-19T09:15:00;94988.66;;;26.95;34.05
43217;BME280;71549;42.686;23.300;2023-09-19T09:17:01;94845.00;;;26.06;33.93
43217;BME280;71549;42.686;23.300;2023-09-19T09:19:03;94983.63;;;26.97;34.04
43217;BME280;71549;42.686;23.300;2023-09-19T09:21:04;94951.91;;;26.78;33.69
43217;BME280;71549;42.686;23.300;2023-09-19T09:23:11;94888.53;;;26.40;33.84
43217;BME280;71549;42.686;23.300;2023-09-19T09:25:14;94972.75;;;26.97;33.86
43217;BME280;71549;42.686;23.300;2023-09-19T09:27:23;94879.56;;;26.36;33.93
43217;BME280;71549;42.686;23.300;2023-09-19T09:29:51;94969.66;;;26.99;33.78
43217;BME280;71549;42.686;23.300;2023-09-19T09:31:52;94903.44;;;26.54;33.98
43217;BME280;71549;42.686;23.300;2023-09-19T09:33:54;94973.59;;;27.01;34.10
43217;BME280;71549;42.686;23.300;2023-09-19T09:35:57;94922.03;;;26.78;34.17
43217;BME280;71549;42.686;23.300;2023-09-19T09:38:00;94960.38;;;27.00;34.16
43217;BME280;71549;42.686;23.300;2023-09-19T09:40:07;94959.19;;;27.01;33.78
43217;BME280;71549;42.686;23.300;2023-09-19T09:42:29;94940.94;;;26.98;33.80
43217;BME280;71549;42.686;23.300;2023-09-19T09:47:02;94928.41;;;26.90;33.83
43217;BME280;71549;42.686;23.300;2023-09-19T09:49:27;94934.69;;;26.94;33.72
43217;BME280;71549;42.686;23.300;2023-09-19T09:51:37;94944.13;;;27.03;34.13
43217;BME280;71549;42.686;23.300;2023-09-19T09:53:39;94941.41;;;27.03;34.08
43217;BME280;71549;42.686;23.300;2023-09-19T09:56:05;94938.31;;;27.05;33.95
43217;BME280;71549;42.686;23.300;2023-09-19T09:58:18;94941.00;;;27.05;33.81
43217;BME280;71549;42.686;23.300;2023-09-19T10:00:19;94927.78;;;27.00;33.95
43217;BME280;71549;42.686;23.300;2023-09-19T10:02:26;94896.47;;;26.79;33.82
43217;BME280;71549;42.686;23.300;2023-09-19T10:04:29;94939.88;;;27.06;33.79
43217;BME280;71549;42.686;23.300;2023-09-19T10:06:42;94912.84;;;26.86;33.91
43217;BME280;71549;42.686;23.300;2023-09-19T10:09:08;94914.88;;;26.93;34.04
43217;BME280;71549;42.686;23.300;2023-09-19T10:11:15;94936.00;;;27.07;33.69
43217;BME280;71549;42.686;23.300;2023-09-19T10:13:16;94881.31;;;26.78;34.22
43217;BME280;71549;42.686;23.300;2023-09-19T10:15:25;94929.44;;;27.08;34.07
43217;BME280;71549;42.686;23.300;2023-09-19T10:17:29;94920.81;;;27.02;34.05
43217;BME280;71549;42.686;23.300;2023-09-19T10:19:46;94925.53;;;27.09;33.80
43217;BME280;71549;42.686;23.300;2023-09-19T10:21:54;94892.34;;;26.89;33.87
43217;BME280;71549;42.686;23.300;2023-09-19T10:23:58;94930.19;;;27.09;34.04
43217;BME280;71549;42.686;23.300;2023-09-19T10:26:01;94927.91;;;27.11;34.00
43217;BME280;71549;42.686;23.300;2023-09-19T10:28:02;94913.00;;;26.97;33.92
43217;BME280;71549;42.686;23.300;2023-09-19T10:30:14;94925.97;;;27.11;34.06
43217;BME280;71549;42.686;23.300;2023-09-19T10:32:16;94925.19;;;27.11;33.99
43217;BME280;71549;42.686;23.300;2023-09-19T10:34:20;94916.66;;;27.12;33.98
43217;BME280;71549;42.686;23.300;2023-09-19T10:36:25;94922.09;;;27.12;33.84
43217;BME280;71549;42.686;23.300;2023-09-19T10:38:27;94884.19;;;26.89;33.84
43217;BME280;71549;42.686;23.300;2023-09-19T10:40:29;94926.75;;;27.12;33.86
43217;BME280;71549;42.686;23.300;2023-09-19T10:42:33;94913.50;;;27.06;33.66
43217;BME280;71549;42.686;23.300;2023-09-19T10:44:41;94919.38;;;27.12;33.80
43217;BME280;71549;42.686;23.300;2023-09-19T10:46:44;94916.31;;;27.14;34.09
43217;BME280;71549;42.686;23.300;2023-09-19T10:48:45;94905.81;;;27.12;34.01
43217;BME280;71549;42.686;23.300;2023-09-19T10:50:53;94913.59;;;27.14;33.94
43217;BME280;71549;42.686;23.300;2023-09-19T10:53:08;94880.84;;;27.03;33.82
43217;BME280;71549;42.686;23.300;2023-09-19T10:55:16;94901.56;;;27.15;34.09
43217;BME280;71549;42.686;23.300;2023-09-19T10:57:23;94871.84;;;26.95;33.99
43217;BME280;71549;42.686;23.300;2023-09-19T10:59:38;94899.25;;;27.17;33.78